createdAt,value
2018-02-14T00:01:05.262Z,6.17
2018-02-14T00:03:31.543Z,5.90
2018-02-14T00:05:57.831Z,6.27
2018-02-14T00:08:24.915Z,5.90
2018-02-14T00:11:00.903Z,6.73
2018-02-14T00:13:38.163Z,5.90
2018-02-14T00:16:16.696Z,5.57
2018-02-14T00:18:51.567Z,5.63
2018-02-14T00:21:18.592Z,6.20
2018-02-14T00:23:44.886Z,6.47
2018-02-14T00:26:12.339Z,6.83
2018-02-14T00:28:38.804Z,6.07
2018-02-14T00:31:05.810Z,6.73
2018-02-14T00:33:32.247Z,6.10
2018-02-14T00:35:59.542Z,7.60
2018-02-14T00:38:25.802Z,6.03
2018-02-14T00:40:55.466Z,7.40
2018-02-14T00:43:21.731Z,7.40
2018-02-14T00:45:48.344Z,6.63
2018-02-14T00:48:14.743Z,7.00
2018-02-14T00:50:41.750Z,6.43
2018-02-14T00:53:08.794Z,7.07
2018-02-14T00:55:35.062Z,6.73
2018-02-14T00:58:06.935Z,6.90
2018-02-14T01:00:35.371Z,6.53
2018-02-14T01:03:04.789Z,6.17
2018-02-14T01:05:33.244Z,6.57
2018-02-14T01:08:01.894Z,6.63
2018-02-14T01:10:30.490Z,6.23
2018-02-14T01:12:56.781Z,5.97
2018-02-14T01:15:23.050Z,6.23
2018-02-14T01:17:49.322Z,6.03
2018-02-14T01:20:15.608Z,6.20
2018-02-14T01:22:41.882Z,6.10
2018-02-14T01:25:08.159Z,6.83
2018-02-14T01:27:34.442Z,7.00
2018-02-14T01:30:01.487Z,6.43
2018-02-14T01:32:27.743Z,7.33
2018-02-14T01:34:54.007Z,7.33
2018-02-14T01:37:21.026Z,7.23
2018-02-14T01:39:48.023Z,6.47
2018-02-14T01:42:14.311Z,6.20
2018-02-14T01:44:40.574Z,7.13
2018-02-14T01:47:06.938Z,6.23
2018-02-14T01:49:33.230Z,6.47
2018-02-14T01:51:59.531Z,6.37
2018-02-14T01:54:25.804Z,6.17
2018-02-14T01:56:52.071Z,5.90
2018-02-14T01:59:19.073Z,6.80
2018-02-14T02:01:45.351Z,7.30
2018-02-14T02:04:11.626Z,6.60
2018-02-14T02:06:38.650Z,6.27
2018-02-14T02:09:04.922Z,6.03
2018-02-14T02:11:31.177Z,6.00
2018-02-14T02:13:57.460Z,6.47
2018-02-14T02:16:23.723Z,6.27
2018-02-14T02:18:50.776Z,6.57
2018-02-14T02:21:17.051Z,6.37
2018-02-14T02:23:43.338Z,6.73
2018-02-14T02:26:09.642Z,6.50
2018-02-14T02:28:35.934Z,10.33
2018-02-14T02:31:02.224Z,9.87
2018-02-14T02:33:31.661Z,9.63
2018-02-14T02:35:57.922Z,7.67
2018-02-14T02:38:24.954Z,7.60
2018-02-14T02:40:51.214Z,7.03
2018-02-14T02:43:17.488Z,6.73
2018-02-14T02:45:43.746Z,6.07
2018-02-14T02:48:10.028Z,6.47
2018-02-14T02:50:37.047Z,6.90
2018-02-14T02:53:03.312Z,6.13
2018-02-14T02:55:29.596Z,6.63
2018-02-14T02:57:55.958Z,6.50
2018-02-14T03:00:22.290Z,7.40
2018-02-14T03:02:48.559Z,6.70
2018-02-14T03:05:14.819Z,6.13
2018-02-14T03:07:41.103Z,6.67
2018-02-14T03:10:07.371Z,7.50
2018-02-14T03:12:34.418Z,6.87
2018-02-14T03:15:01.433Z,6.40
2018-02-14T03:17:27.710Z,6.83
2018-02-14T03:19:53.999Z,6.63
2018-02-14T03:22:20.296Z,6.93
2018-02-14T03:24:47.329Z,6.80
2018-02-14T03:27:14.338Z,7.07
2018-02-14T03:29:40.626Z,7.40
2018-02-14T03:32:06.921Z,8.03
2018-02-14T03:34:33.927Z,7.50
2018-02-14T03:37:00.231Z,7.10
2018-02-14T03:39:27.226Z,7.67
2018-02-14T03:41:53.514Z,7.27
2018-02-14T03:44:19.803Z,7.63
2018-02-14T03:46:46.847Z,8.30
2018-02-14T03:49:13.134Z,7.67
2018-02-14T03:51:39.391Z,8.23
2018-02-14T03:54:05.650Z,7.53
2018-02-14T03:56:34.889Z,8.07
2018-02-14T03:59:04.281Z,8.17
2018-02-14T04:01:32.962Z,8.80
2018-02-14T04:04:02.229Z,8.00
2018-02-14T04:06:30.941Z,8.07
2018-02-14T04:08:57.252Z,8.37
2018-02-14T04:11:23.535Z,7.63
2018-02-14T04:13:49.830Z,8.87
2018-02-14T04:16:16.878Z,8.10
2018-02-14T04:18:43.146Z,8.67
2018-02-14T04:21:09.434Z,8.23
2018-02-14T04:23:35.728Z,8.73
2018-02-14T04:26:02.016Z,8.53
2018-02-14T04:28:29.066Z,8.57
2018-02-14T04:30:55.391Z,8.80
2018-02-14T04:33:21.677Z,8.33
2018-02-14T04:35:48.685Z,8.40
2018-02-14T04:38:14.981Z,8.80
2018-02-14T04:40:41.250Z,9.13
2018-02-14T04:43:07.510Z,8.83
2018-02-14T04:45:33.789Z,8.37
2018-02-14T04:48:00.063Z,8.30
2018-02-14T04:50:26.330Z,8.77
2018-02-14T04:52:52.612Z,9.17
2018-02-14T04:55:19.619Z,8.57
2018-02-14T04:57:45.870Z,9.00
2018-02-14T05:00:12.149Z,9.53
2018-02-14T05:02:38.415Z,8.87
2018-02-14T05:05:04.694Z,9.00
2018-02-14T05:07:31.706Z,9.90
2018-02-14T05:09:57.969Z,9.87
2018-02-14T05:12:24.263Z,8.67
2018-02-14T05:14:51.263Z,10.10
2018-02-14T05:17:17.549Z,9.47
2018-02-14T05:19:43.825Z,9.00
2018-02-14T05:22:10.819Z,9.47
2018-02-14T05:24:37.110Z,10.40
2018-02-14T05:27:03.386Z,9.50
2018-02-14T05:29:30.405Z,9.53
2018-02-14T05:31:56.694Z,9.63
2018-02-14T05:34:22.962Z,9.20
2018-02-14T05:36:49.238Z,9.43
2018-02-14T05:39:15.494Z,10.30
2018-02-14T05:41:41.775Z,10.43
2018-02-14T05:44:08.033Z,10.20
2018-02-14T05:46:34.307Z,9.53
2018-02-14T05:49:00.586Z,10.00
2018-02-14T05:51:26.902Z,9.77
2018-02-14T05:53:53.215Z,9.53
2018-02-14T05:56:19.482Z,9.50
2018-02-14T05:58:46.505Z,11.77
2018-02-14T06:01:12.798Z,11.70
2018-02-14T06:03:39.116Z,10.80
2018-02-14T06:06:05.420Z,10.63
2018-02-14T06:08:31.698Z,11.20
2018-02-14T06:10:57.968Z,10.77
2018-02-14T06:13:24.286Z,13.60
2018-02-14T06:15:50.545Z,12.43
2018-02-14T06:18:16.871Z,13.53
2018-02-14T06:20:43.139Z,12.73
2018-02-14T06:23:09.422Z,13.47
2018-02-14T06:25:35.738Z,12.83
2018-02-14T06:28:02.025Z,13.67
2018-02-14T06:30:28.315Z,12.27
2018-02-14T06:32:55.357Z,12.47
2018-02-14T06:35:22.378Z,12.73
2018-02-14T06:37:49.398Z,12.53
2018-02-14T06:40:15.674Z,12.63
2018-02-14T06:42:41.979Z,12.13
2018-02-14T06:45:08.254Z,12.03
2018-02-14T06:47:34.534Z,13.33
2018-02-14T06:50:00.830Z,12.53
2018-02-14T06:52:27.099Z,12.77
2018-02-14T06:54:54.130Z,13.83
2018-02-14T06:57:21.142Z,12.77
2018-02-14T06:59:47.419Z,13.30
2018-02-14T07:02:13.715Z,13.17
2018-02-14T07:04:40.566Z,12.10
2018-02-14T07:07:06.902Z,13.27
2018-02-14T07:09:33.383Z,12.63
2018-02-14T07:11:59.667Z,12.83
2018-02-14T07:14:26.723Z,13.23
2018-02-14T07:16:52.994Z,12.93
2018-02-14T07:19:19.573Z,12.20
2018-02-14T07:21:45.893Z,12.83
2018-02-14T07:24:12.185Z,11.77
2018-02-14T07:26:38.492Z,12.57
2018-02-14T07:29:05.489Z,12.13
2018-02-14T07:31:31.783Z,12.80
2018-02-14T07:33:58.081Z,12.40
2018-02-14T07:36:24.437Z,12.37
2018-02-14T07:38:50.740Z,11.67
2018-02-14T07:41:23.434Z,12.40
2018-02-14T07:43:50.641Z,12.43
2018-02-14T07:46:17.778Z,12.90
2018-02-14T07:48:44.073Z,12.57
2018-02-14T07:51:10.365Z,11.90
2018-02-14T07:53:36.691Z,12.23
2018-02-14T07:56:03.431Z,12.90
2018-02-14T07:58:29.730Z,13.23
2018-02-14T08:00:56.390Z,12.77
2018-02-14T08:03:22.737Z,12.33
2018-02-14T08:05:49.015Z,12.33
2018-02-14T08:08:15.343Z,13.73
2018-02-14T08:10:41.610Z,13.23
2018-02-14T08:13:07.877Z,11.50
2018-02-14T08:15:34.159Z,12.73
2018-02-14T08:18:00.442Z,13.20
2018-02-14T08:20:27.478Z,11.97
2018-02-14T08:22:54.489Z,12.97
2018-02-14T08:25:20.767Z,14.60
2018-02-14T08:27:47.810Z,13.77
2018-02-14T08:30:14.075Z,13.67
2018-02-14T08:32:41.103Z,17.83
2018-02-14T08:35:08.149Z,16.23
2018-02-14T08:37:34.418Z,14.40
2018-02-14T08:40:00.711Z,14.37
2018-02-14T08:42:26.978Z,14.07
2018-02-14T08:44:53.982Z,13.93
2018-02-14T08:47:20.295Z,13.40
2018-02-14T08:49:46.586Z,12.80
2018-02-14T08:52:12.841Z,16.10
2018-02-14T08:54:39.136Z,22.00
2018-02-14T08:57:05.402Z,18.40
2018-02-14T08:59:31.665Z,19.63
2018-02-14T09:01:57.950Z,14.73
2018-02-14T09:04:24.967Z,18.17
2018-02-14T09:06:51.284Z,14.53
2018-02-14T09:09:17.566Z,15.47
2018-02-14T09:11:43.848Z,12.40
2018-02-14T09:14:10.152Z,14.03
2018-02-14T09:16:36.424Z,13.27
2018-02-14T09:19:04.216Z,14.00
2018-02-14T09:21:36.625Z,15.37
2018-02-14T09:24:03.291Z,15.27
2018-02-14T09:26:29.590Z,14.07
2018-02-14T09:28:55.873Z,16.73
2018-02-14T09:31:22.224Z,14.63
2018-02-14T09:33:49.214Z,12.70
2018-02-14T09:36:15.545Z,14.23
2018-02-14T09:38:42.555Z,13.87
2018-02-14T09:41:08.827Z,12.30
2018-02-14T09:43:35.134Z,13.27
2018-02-14T09:46:01.431Z,12.17
2018-02-14T09:48:27.762Z,12.37
2018-02-14T09:50:54.042Z,13.10
2018-02-14T09:53:20.338Z,12.90
2018-02-14T09:55:46.651Z,12.43
2018-02-14T09:58:12.935Z,12.90
2018-02-14T10:00:39.249Z,13.20
2018-02-14T10:03:05.517Z,14.07
2018-02-14T10:05:31.831Z,14.67
2018-02-14T10:07:58.124Z,12.20
2018-02-14T10:10:24.398Z,13.50
2018-02-14T10:12:50.685Z,11.40
2018-02-14T10:15:16.975Z,11.23
2018-02-14T10:17:43.265Z,10.53
2018-02-14T10:20:09.550Z,10.33
2018-02-14T10:22:35.830Z,11.70
2018-02-14T10:25:02.139Z,10.40
2018-02-14T10:27:28.418Z,10.80
2018-02-14T10:29:54.703Z,10.07
2018-02-14T10:32:21.723Z,10.20
2018-02-14T10:34:47.982Z,10.33
2018-02-14T10:37:14.298Z,9.97
2018-02-14T10:39:40.554Z,8.43
2018-02-14T10:42:06.828Z,9.90
2018-02-14T10:44:33.119Z,9.17
2018-02-14T10:46:59.411Z,9.70
2018-02-14T10:49:25.747Z,9.00
2018-02-14T10:51:52.737Z,9.73
2018-02-14T10:54:18.999Z,9.20
2018-02-14T10:56:45.306Z,8.87
2018-02-14T10:59:12.318Z,8.47
2018-02-14T11:01:44.674Z,8.80
2018-02-14T11:04:17.080Z,7.80
2018-02-14T11:06:43.478Z,8.70
2018-02-14T11:09:09.762Z,8.80
2018-02-14T11:11:36.100Z,8.67
2018-02-14T11:14:03.106Z,8.67
2018-02-14T11:16:29.386Z,9.40
2018-02-14T11:18:55.674Z,8.70
2018-02-14T11:21:22.701Z,8.30
2018-02-14T11:23:49.728Z,8.47
2018-02-14T11:26:16.754Z,10.25
2018-02-14T11:28:43.758Z,9.45
2018-02-14T11:31:10.047Z,9.60
2018-02-14T11:33:36.338Z,9.30
2018-02-14T11:36:02.628Z,10.27
2018-02-14T11:38:29.670Z,10.43
2018-02-14T11:40:56.681Z,10.63
2018-02-14T11:43:22.967Z,9.50
2018-02-14T11:45:49.234Z,9.25
2018-02-14T11:48:16.267Z,9.82
2018-02-14T11:50:43.286Z,9.93
2018-02-14T11:53:09.559Z,10.07
2018-02-14T11:55:35.862Z,10.55
2018-02-14T11:58:02.147Z,11.17
2018-02-14T12:00:29.200Z,11.98
2018-02-14T12:02:55.489Z,11.82
2018-02-14T12:05:22.515Z,10.95
2018-02-14T12:07:49.554Z,11.55
2018-02-14T12:10:16.574Z,10.93
2018-02-14T12:12:42.898Z,10.60
2018-02-14T12:15:09.923Z,10.20
2018-02-14T12:17:36.196Z,9.63
2018-02-14T12:20:02.495Z,10.80
2018-02-14T12:22:28.770Z,9.63
2018-02-14T12:24:55.082Z,9.73
2018-02-14T12:27:21.352Z,10.33
2018-02-14T12:29:47.619Z,12.40
2018-02-14T12:32:14.660Z,11.27
2018-02-14T12:34:41.674Z,10.17
2018-02-14T12:37:08.009Z,10.93
2018-02-14T12:39:35.060Z,10.33
2018-02-14T12:42:01.330Z,9.97
2018-02-14T12:44:27.630Z,9.60
2018-02-14T12:46:53.919Z,9.00
2018-02-14T12:49:20.252Z,9.50
2018-02-14T12:51:46.530Z,9.97
2018-02-14T12:54:12.820Z,8.70
2018-02-14T12:56:39.106Z,8.77
2018-02-14T12:59:05.388Z,8.40
2018-02-14T13:01:31.691Z,17.60
2018-02-14T13:03:57.964Z,10.63
2018-02-14T13:06:24.260Z,9.70
2018-02-14T13:08:50.561Z,10.50
2018-02-14T13:11:16.836Z,11.40
2018-02-14T13:13:43.857Z,9.57
2018-02-14T13:16:10.222Z,14.90
2018-02-14T13:18:36.491Z,8.27
2018-02-14T13:21:02.784Z,8.10
2018-02-14T13:23:29.138Z,7.70
2018-02-14T13:25:56.227Z,8.10
2018-02-14T13:28:22.550Z,7.80
2018-02-14T13:30:48.850Z,7.30
2018-02-14T13:33:15.118Z,6.70
2018-02-14T13:35:42.162Z,6.03
2018-02-14T13:38:09.157Z,7.65
2018-02-14T13:40:35.530Z,8.90
2018-02-14T13:43:01.794Z,8.10
2018-02-14T13:45:28.049Z,9.38
2018-02-14T13:47:54.333Z,9.73
2018-02-14T13:50:20.626Z,9.37
2018-02-14T13:52:46.926Z,8.33
2018-02-14T13:55:13.211Z,8.20
2018-02-14T13:57:39.510Z,8.37
2018-02-14T14:00:05.825Z,7.60
2018-02-14T14:02:32.830Z,7.55
2018-02-14T14:04:59.143Z,7.20
2018-02-14T14:07:25.418Z,6.35
2018-02-14T14:09:51.714Z,5.95
2018-02-14T14:12:18.006Z,6.32
2018-02-14T14:14:45.026Z,5.47
2018-02-14T14:17:11.337Z,5.53
2018-02-14T14:19:37.642Z,5.80
2018-02-14T14:22:04.696Z,6.55
2018-02-14T14:24:31.062Z,4.87
2018-02-14T14:26:57.367Z,5.17
2018-02-14T14:29:23.674Z,6.00
2018-02-14T14:31:49.967Z,5.33
2018-02-14T14:34:16.277Z,4.47
2018-02-14T14:36:43.330Z,5.40
2018-02-14T14:39:09.615Z,5.00
2018-02-14T14:41:36.703Z,5.17
2018-02-14T14:44:02.987Z,5.53
2018-02-14T14:46:29.274Z,4.53
2018-02-14T14:48:56.325Z,4.80
2018-02-14T14:51:22.614Z,6.00
2018-02-14T14:53:49.662Z,4.23
2018-02-14T14:56:16.058Z,5.03
2018-02-14T14:58:42.333Z,5.10
2018-02-14T15:01:08.654Z,5.87
2018-02-14T15:03:34.943Z,5.53
2018-02-14T15:06:01.298Z,5.77
2018-02-14T15:08:27.595Z,5.80
2018-02-14T15:10:53.884Z,6.40
2018-02-14T15:13:20.235Z,5.57
2018-02-14T15:15:46.511Z,5.67
2018-02-14T15:18:12.827Z,6.00
2018-02-14T15:20:39.127Z,5.23
2018-02-14T15:23:05.478Z,5.43
2018-02-14T15:25:31.826Z,5.87
2018-02-14T15:28:02.160Z,8.13
2018-02-14T15:30:29.710Z,6.67
2018-02-14T15:32:56.224Z,19.00
2018-02-14T15:35:23.282Z,26.87
2018-02-14T15:37:50.329Z,7.03
2018-02-14T15:40:17.507Z,7.50
2018-02-14T15:42:45.866Z,12.40
2018-02-14T15:45:13.849Z,8.10
2018-02-14T15:47:40.326Z,16.33
2018-02-14T15:50:07.115Z,15.03
2018-02-14T15:52:33.837Z,9.40
2018-02-14T15:55:09.953Z,5.33
2018-02-14T15:57:37.908Z,5.53
2018-02-14T16:00:05.350Z,5.73
2018-02-14T16:02:32.755Z,5.10
2018-02-14T16:05:04.124Z,6.97
2018-02-14T16:07:38.310Z,8.50
2018-02-14T16:10:09.122Z,7.53
2018-02-14T16:12:36.075Z,6.07
2018-02-14T16:15:05.743Z,6.10
2018-02-14T16:17:33.859Z,6.63
2018-02-14T16:20:03.749Z,6.23
2018-02-14T16:22:35.096Z,6.37
2018-02-14T16:25:07.476Z,6.10
2018-02-14T16:27:35.436Z,6.63
2018-02-14T16:30:16.795Z,6.87
2018-02-14T16:32:48.013Z,6.07
2018-02-14T16:35:17.434Z,6.73
2018-02-14T16:37:53.945Z,6.13
2018-02-14T16:40:22.378Z,9.60
2018-02-14T16:42:49.323Z,8.73
2018-02-14T16:45:20.006Z,8.93
2018-02-14T16:47:44.482Z,8.27
2018-02-14T16:50:11.510Z,7.80
2018-02-14T16:52:37.826Z,7.17
2018-02-14T16:55:04.106Z,9.07
2018-02-14T16:57:30.418Z,10.20
2018-02-14T16:59:56.709Z,9.07
2018-02-14T17:02:23.728Z,11.03
2018-02-14T17:04:50.054Z,13.47
2018-02-14T17:07:17.085Z,13.90
2018-02-14T17:09:44.107Z,13.97
2018-02-14T17:12:11.169Z,16.93
2018-02-14T17:14:37.454Z,14.93
2018-02-14T17:17:05.877Z,18.83
2018-02-14T17:19:34.092Z,14.57
2018-02-14T17:22:02.259Z,13.83
2018-02-14T17:24:29.318Z,11.03
2018-02-14T17:26:58.242Z,11.40
2018-02-14T17:29:25.375Z,12.70
2018-02-14T17:31:52.519Z,10.43
2018-02-14T17:34:18.976Z,11.57
2018-02-14T17:36:45.290Z,11.07
2018-02-14T17:39:12.045Z,11.73
2018-02-14T17:41:39.001Z,10.13
2018-02-14T17:44:05.358Z,11.13
2018-02-14T17:46:31.630Z,10.07
2018-02-14T17:48:58.071Z,10.27
2018-02-14T17:51:25.708Z,14.20
2018-02-14T17:53:52.726Z,22.03
2018-02-14T17:56:19.563Z,17.03
2018-02-14T17:58:45.865Z,20.93
2018-02-14T18:01:13.237Z,21.27
2018-02-14T18:03:40.280Z,18.13
2018-02-14T18:06:06.592Z,17.47
2018-02-14T18:08:33.586Z,17.83
2018-02-14T18:11:01.417Z,17.50
2018-02-14T18:13:28.487Z,18.53
2018-02-14T18:15:55.501Z,16.53
2018-02-14T18:18:22.631Z,14.60
2018-02-14T18:20:50.360Z,14.70
2018-02-14T18:23:17.657Z,12.90
2018-02-14T18:25:46.041Z,14.53
2018-02-14T18:28:13.886Z,13.87
2018-02-14T18:30:41.741Z,12.60
2018-02-14T18:33:09.628Z,12.33
2018-02-14T18:35:38.402Z,12.80
2018-02-14T18:38:06.145Z,11.83
2018-02-14T18:40:34.236Z,12.83
2018-02-14T18:43:00.742Z,13.47
2018-02-14T18:45:27.592Z,13.27
2018-02-14T18:47:54.627Z,12.70
2018-02-14T18:50:23.007Z,13.03
2018-02-14T18:52:50.344Z,12.20
2018-02-14T18:55:17.662Z,11.13
2018-02-14T18:57:45.421Z,13.10
2018-02-14T19:00:12.506Z,13.13
2018-02-14T19:02:38.942Z,13.87
2018-02-14T19:05:05.240Z,15.10
2018-02-14T19:07:31.548Z,14.67
2018-02-14T19:09:57.873Z,13.60
2018-02-14T19:12:24.166Z,14.17
2018-02-14T19:14:50.491Z,13.60
2018-02-14T19:17:16.827Z,15.10
2018-02-14T19:19:43.162Z,14.80
2018-02-14T19:22:09.485Z,16.30
2018-02-14T19:24:35.881Z,13.43
2018-02-14T19:27:02.200Z,14.70
2018-02-14T19:29:28.527Z,15.50
2018-02-14T19:31:54.876Z,14.17
2018-02-14T19:34:21.916Z,13.37
2018-02-14T19:36:48.219Z,14.03
2018-02-14T19:39:15.338Z,14.47
2018-02-14T19:41:41.634Z,14.53
2018-02-14T19:44:07.943Z,14.63
2018-02-14T19:46:34.317Z,15.27
2018-02-14T19:49:00.623Z,13.67
2018-02-14T19:51:27.671Z,14.13
2018-02-14T19:53:53.959Z,14.03
2018-02-14T19:56:20.374Z,12.33
2018-02-14T19:58:46.698Z,13.37
2018-02-14T20:01:13.837Z,14.20
2018-02-14T20:03:40.968Z,13.83
2018-02-14T20:06:08.515Z,14.17
2018-02-14T20:08:34.883Z,13.03
2018-02-14T20:11:01.189Z,12.97
2018-02-14T20:13:27.478Z,13.73
2018-02-14T20:15:53.802Z,13.17
2018-02-14T20:18:20.147Z,14.27
2018-02-14T20:20:46.514Z,14.10
2018-02-14T20:23:13.596Z,14.03
2018-02-14T20:25:39.940Z,13.50
2018-02-14T20:28:06.345Z,14.00
2018-02-14T20:30:32.671Z,14.60
2018-02-14T20:32:58.975Z,16.43
2018-02-14T20:35:25.250Z,17.20
2018-02-14T20:37:51.570Z,18.27
2018-02-14T20:40:17.897Z,17.50
2018-02-14T20:42:44.219Z,16.53
2018-02-14T20:45:10.564Z,17.07
2018-02-14T20:47:36.954Z,16.43
2018-02-14T20:50:03.252Z,16.73
2018-02-14T20:52:29.577Z,17.50
2018-02-14T20:54:55.884Z,17.00
2018-02-14T20:57:22.234Z,17.47
2018-02-14T20:59:48.520Z,15.73
2018-02-14T21:02:15.002Z,16.47
2018-02-14T21:04:41.393Z,16.27
2018-02-14T21:07:07.706Z,17.17
2018-02-14T21:09:33.971Z,16.47
2018-02-14T21:12:00.260Z,14.87
2018-02-14T21:14:26.547Z,18.50
2018-02-14T21:16:52.861Z,21.73
2018-02-14T21:19:19.155Z,21.60
2018-02-14T21:21:45.417Z,20.80
2018-02-14T21:24:11.702Z,23.63
2018-02-14T21:26:37.995Z,20.03
2018-02-14T21:29:05.347Z,22.80
2018-02-14T21:31:31.650Z,26.87
2018-02-14T21:33:57.952Z,24.70
2018-02-14T21:36:30.730Z,24.20
2018-02-14T21:38:57.090Z,23.43
2018-02-14T21:41:23.898Z,21.00
2018-02-14T21:43:50.407Z,20.87
2018-02-14T21:46:17.514Z,18.93
2018-02-14T21:48:45.439Z,19.27
2018-02-14T21:51:12.943Z,18.97
2018-02-14T21:53:39.971Z,17.93
2018-02-14T21:56:07.858Z,18.20
2018-02-14T21:58:34.596Z,18.03
2018-02-14T22:01:01.918Z,18.03
2018-02-14T22:03:28.857Z,17.73
2018-02-14T22:05:56.022Z,17.40
2018-02-14T22:08:23.926Z,17.57
2018-02-14T22:10:50.894Z,16.93
2018-02-14T22:13:18.578Z,19.83
2018-02-14T22:15:45.432Z,18.03
2018-02-14T22:18:12.943Z,18.47
2018-02-14T22:20:39.634Z,17.10
2018-02-14T22:23:06.501Z,18.17
2018-02-14T22:25:33.782Z,15.80
2018-02-14T22:28:00.639Z,17.40
2018-02-14T22:30:28.314Z,16.63
2018-02-14T22:32:54.636Z,17.47
2018-02-14T22:35:21.654Z,18.47
2018-02-14T22:37:48.655Z,21.37
2018-02-14T22:40:16.386Z,20.90
2018-02-14T22:42:43.839Z,20.33
2018-02-14T22:45:10.713Z,21.90
2018-02-14T22:47:37.887Z,25.60
2018-02-14T22:50:04.231Z,21.60
2018-02-14T22:52:30.514Z,22.37
2018-02-14T22:54:56.811Z,20.33
2018-02-14T22:57:23.125Z,19.43
2018-02-14T22:59:49.420Z,20.10
2018-02-14T23:02:15.773Z,19.40
2018-02-14T23:04:42.096Z,17.93
2018-02-14T23:07:08.370Z,17.60
2018-02-14T23:09:34.655Z,17.87
2018-02-14T23:12:00.920Z,19.33
2018-02-14T23:14:27.228Z,18.93
2018-02-14T23:16:53.494Z,20.17
2018-02-14T23:19:19.768Z,19.83
2018-02-14T23:21:46.069Z,20.47
2018-02-14T23:24:12.354Z,20.77
2018-02-14T23:26:39.388Z,20.43
2018-02-14T23:29:06.466Z,24.13
2018-02-14T23:31:32.738Z,25.07
2018-02-14T23:33:59.803Z,26.07
2018-02-14T23:36:26.074Z,26.53
2018-02-14T23:38:52.361Z,25.80
2018-02-14T23:41:18.752Z,25.73
2018-02-14T23:43:45.104Z,24.23
2018-02-14T23:46:11.386Z,23.37
2018-02-14T23:48:37.659Z,22.43
2018-02-14T23:51:03.974Z,23.33
2018-02-14T23:53:31.028Z,22.63
2018-02-14T23:55:57.373Z,21.80
2018-02-14T23:58:23.666Z,21.93
